»·PEaware :: N350KT KYKM-KMFR

N350KT :: KYKM-KMFR

FLIGHT INFORMATION

Flight Status: Arrived
Operator: Privately registered:
United States
More flights under this callsign
Pilot: Aundrey S. (17120)
Aircraft: ECLIPSE 500
(EA50)
More flights by this aircraft type
Origin: KYKM Yakima Air Term/Mcallister
United States
Destination: KMFR Rogue Valley Intl-Medford
United States
More flights between these airports :: More routes between these airports
Route: +GROMO4 GUBSE V25 LTJ DSD OED
File this flight plan on PilotEdge
Remarks:
Altitude:
(Current/Filed)
28,000ft
Speed:
(Current/Filed)
400kts
Departed: 03-Jul-18 04:01 PM
Arrived: 03-Jul-18 05:20 PM
Distance/Time
Traveled:
271nm/1:19
Distance/Time
To Go:
Arrived

Flight Plot

Page will automatically refresh every two minutes.

Flight plan parsing failed; only flown route is shown


Map Options




Map Legend


Flown Route
Filed Route
Departure Airport
Arrival Airport
Navaid (VOR, NDB)
Fix

Horizontal Profiles

Position Reports

Time Latitude Longitude Heading Altitude Ground
Speed
03-Jul-18 15:35 46.572094 -120.548219 91 1076ft 0kts
03-Jul-18 15:36 46.572094 -120.548219 91 1076ft 0kts
03-Jul-18 15:37 46.572094 -120.548219 91 1076ft 0kts
03-Jul-18 15:38 46.572094 -120.548219 91 1076ft 0kts
03-Jul-18 15:39 46.572094 -120.548219 91 1076ft 0kts
03-Jul-18 15:40 46.572094 -120.548219 91 1076ft 0kts
03-Jul-18 15:41 46.572094 -120.548219 91 1076ft 0kts
03-Jul-18 15:42 46.572094 -120.548219 91 1076ft 0kts
03-Jul-18 15:43 46.572094 -120.548219 91 1076ft 0kts
03-Jul-18 15:44 46.572094 -120.548219 91 1076ft 0kts
03-Jul-18 15:45 46.572094 -120.548219 91 1076ft 0kts
03-Jul-18 15:46 46.572094 -120.548219 91 1076ft 0kts
03-Jul-18 15:47 46.572094 -120.548219 91 1076ft 0kts
03-Jul-18 15:48 46.572094 -120.548219 91 1076ft 0kts
03-Jul-18 15:49 46.572094 -120.548219 91 1076ft 0kts
03-Jul-18 15:50 46.572094 -120.548219 91 1076ft 0kts
03-Jul-18 15:51 46.572094 -120.548219 91 1076ft 0kts
03-Jul-18 15:53 46.572094 -120.548219 91 1076ft 0kts
03-Jul-18 15:54 46.572094 -120.548219 91 1076ft 0kts
03-Jul-18 15:55 46.572094 -120.548219 91 1076ft 0kts
03-Jul-18 15:56 46.572094 -120.548219 91 1076ft 0kts
03-Jul-18 15:57 46.570629 -120.547207 107 1074ft 10kts
03-Jul-18 15:58 46.569023 -120.540759 109 1064ft 16kts
03-Jul-18 15:59 46.567404 -120.534307 110 1051ft 17kts
03-Jul-18 16:00 46.566450 -120.531496 172 1046ft 0kts
03-Jul-18 16:01 46.565621 -120.531590 224 1046ft 8kts
03-Jul-18 16:02 46.573995 -120.565638 278 1563ft 155kts
03-Jul-18 16:03 46.574431 -120.630277 272 4011ft 165kts
03-Jul-18 16:04 46.542088 -120.653433 164 6361ft 171kts
03-Jul-18 16:05 46.496669 -120.632464 143 8575ft 176kts
03-Jul-18 16:06 46.459270 -120.584763 127 9961ft 192kts
03-Jul-18 16:07 46.416907 -120.570988 205 10000ft 162kts
03-Jul-18 16:08 46.374926 -120.599860 207 11094ft 170kts
03-Jul-18 16:09 46.332354 -120.630927 209 12350ft 173kts
03-Jul-18 16:10 46.289328 -120.663219 209 13534ft 176kts
03-Jul-18 16:11 46.245943 -120.696183 210 14663ft 178kts
03-Jul-18 16:12 46.201959 -120.729785 210 15735ft 180kts
03-Jul-18 16:13 46.157432 -120.763848 211 16757ft 183kts
03-Jul-18 16:14 46.112327 -120.798339 211 17727ft 184kts
03-Jul-18 16:15 46.066757 -120.833145 211 18630ft 186kts
03-Jul-18 16:16 46.020890 -120.868125 211 19409ft 188kts
03-Jul-18 16:17 45.974484 -120.903456 211 20148ft 190kts
03-Jul-18 16:18 45.927628 -120.939060 211 20849ft 191kts
03-Jul-18 16:19 45.881102 -120.974346 212 21514ft 193kts
03-Jul-18 16:20 45.833925 -121.010052 212 22365ft 192kts
03-Jul-18 16:21 45.786109 -121.046184 212 23368ft 196kts
03-Jul-18 16:22 45.737618 -121.082742 212 24363ft 198kts
03-Jul-18 16:23 45.683958 -121.103657 192 25364ft 208kts
03-Jul-18 16:24 45.626057 -121.112692 192 26340ft 211kts
03-Jul-18 16:25 45.567323 -121.121347 192 27238ft 214kts
03-Jul-18 16:26 45.507885 -121.129917 193 28008ft 221kts
03-Jul-18 16:27 45.439224 -121.139833 191 28022ft 274kts
03-Jul-18 16:28 45.357813 -121.151310 190 28023ft 314kts
03-Jul-18 16:29 45.266397 -121.164009 192 28023ft 345kts
03-Jul-18 16:30 45.168693 -121.177724 192 28020ft 357kts
03-Jul-18 16:31 45.070328 -121.191417 192 28020ft 357kts
03-Jul-18 16:32 44.971384 -121.205159 192 28021ft 357kts
03-Jul-18 16:33 44.873985 -121.218641 192 28018ft 357kts
03-Jul-18 16:34 44.775607 -121.232213 192 28040ft 357kts
03-Jul-18 16:35 44.676860 -121.245797 192 28044ft 358kts
03-Jul-18 16:36 44.577730 -121.259380 192 28044ft 358kts
03-Jul-18 16:37 44.479415 -121.272820 192 28046ft 356kts
03-Jul-18 16:38 44.380866 -121.286225 192 28046ft 357kts
03-Jul-18 16:39 44.282530 -121.299560 192 28047ft 357kts
03-Jul-18 16:40 44.198399 -121.357314 219 28046ft 338kts
03-Jul-18 16:41 44.120208 -121.428580 220 28071ft 337kts
03-Jul-18 16:42 44.042329 -121.500843 220 28074ft 337kts
03-Jul-18 16:43 43.964643 -121.573069 220 28069ft 336kts
03-Jul-18 16:44 43.888198 -121.643993 220 28068ft 336kts
03-Jul-18 16:45 43.811535 -121.714909 219 28073ft 336kts
03-Jul-18 16:46 43.733660 -121.786726 219 28076ft 336kts
03-Jul-18 16:46 43.668771 -121.846418 219 27674ft 336kts
03-Jul-18 16:47 43.592288 -121.916557 219 26580ft 329kts
03-Jul-18 16:48 43.516574 -121.985778 219 25471ft 325kts
03-Jul-18 16:49 43.441965 -122.053793 218 23872ft 318kts
03-Jul-18 16:50 43.369156 -122.119966 218 22066ft 311kts
03-Jul-18 16:51 43.298279 -122.184198 217 20275ft 303kts
03-Jul-18 16:52 43.228621 -122.247137 216 18469ft 298kts
03-Jul-18 16:53 43.160697 -122.308358 215 16620ft 287kts
03-Jul-18 16:54 43.095241 -122.367201 214 14712ft 279kts
03-Jul-18 16:55 43.031619 -122.424218 214 12800ft 272kts
03-Jul-18 16:56 42.969711 -122.481196 216 11049ft 273kts
03-Jul-18 16:57 42.907405 -122.541537 216 10997ft 277kts
03-Jul-18 16:58 42.844924 -122.598919 209 10995ft 278kts
03-Jul-18 16:59 42.779298 -122.651359 213 11001ft 276kts
03-Jul-18 17:00 42.715963 -122.705810 213 10995ft 267kts
03-Jul-18 17:01 42.653274 -122.760598 213 10996ft 267kts
03-Jul-18 17:02 42.590739 -122.815485 213 10996ft 267kts
03-Jul-18 17:03 42.528428 -122.870181 213 10994ft 268kts
03-Jul-18 17:04 42.461526 -122.899693 170 10997ft 271kts
03-Jul-18 17:05 42.388332 -122.883672 185 10996ft 269kts
03-Jul-18 17:06 42.344299 -122.816061 82 10867ft 284kts
03-Jul-18 17:07 42.363956 -122.718995 74 9053ft 241kts
03-Jul-18 17:08 42.380175 -122.636289 74 7993ft 211kts
03-Jul-18 17:09 42.398329 -122.556506 88 7986ft 229kts
03-Jul-18 17:10 42.352740 -122.531778 192 7263ft 194kts
03-Jul-18 17:11 42.295427 -122.539032 179 7267ft 218kts
03-Jul-18 17:12 42.239945 -122.557965 229 6917ft 218kts
03-Jul-18 17:13 42.216263 -122.631111 255 5997ft 214kts
03-Jul-18 17:14 42.223386 -122.708517 285 5008ft 209kts
03-Jul-18 17:15 42.249864 -122.771618 318 3964ft 167kts
03-Jul-18 17:16 42.277428 -122.804723 320 3242ft 113kts
03-Jul-18 17:17 42.303911 -122.834465 336 2597ft 116kts
03-Jul-18 17:18 42.331442 -122.850164 338 2048ft 113kts
03-Jul-18 17:19 42.360055 -122.865426 340 1459ft 108kts
03-Jul-18 17:20 42.376311 -122.874324 258 1306ft 1kts
03-Jul-18 17:21 42.376344 -122.875594 318 1306ft 8kts
03-Jul-18 17:22 42.375611 -122.877942 118 1306ft 7kts
03-Jul-18 17:23 42.374955 -122.878352 302 1305ft 0kts
03-Jul-18 17:24 42.374971 -122.878389 298 1305ft 0kts
03-Jul-18 17:25 42.374971 -122.878389 298 1305ft 0kts
03-Jul-18 17:26 42.374971 -122.878389 298 1305ft 0kts
03-Jul-18 17:27 42.374971 -122.878389 298 1305ft 0kts
03-Jul-18 17:28 42.374971 -122.878389 298 1305ft 0kts
03-Jul-18 17:29 42.374971 -122.878389 298 1305ft 0kts
03-Jul-18 17:30 42.374971 -122.878389 298 1305ft 0kts
03-Jul-18 17:31 42.374971 -122.878389 298 1305ft 0kts
03-Jul-18 17:32 42.374971 -122.878389 298 1305ft 0kts
03-Jul-18 17:33 42.374971 -122.878389 298 1305ft 0kts
03-Jul-18 17:34 42.374971 -122.878389 298 1305ft 0kts

Navigation Log

Ident Type
Flight plan parsing failed, navigation log unavailable